createdAt,value
2022-12-16T00:02:22.663Z,50.79
2022-12-16T00:07:26.290Z,52.16
2022-12-16T00:12:29.329Z,51.58
2022-12-16T00:17:32.898Z,51.79
2022-12-16T00:22:36.163Z,52.42
2022-12-16T00:27:39.862Z,51.41
2022-12-16T00:32:43.762Z,51.23
2022-12-16T00:37:50.137Z,51.87
2022-12-16T00:42:55.964Z,50.62
2022-12-16T00:47:59.481Z,50.74
2022-12-16T00:53:04.900Z,51.21
2022-12-16T00:58:09.548Z,51.33
2022-12-16T01:03:16.812Z,51.63
2022-12-16T01:08:24.988Z,51.61
2022-12-16T01:13:28.337Z,51.52
2022-12-16T01:18:32.123Z,51.38
2022-12-16T01:23:35.927Z,52.05
2022-12-16T01:28:39.950Z,52.13
2022-12-16T01:33:44.005Z,52.53
2022-12-16T01:38:47.202Z,53.27
2022-12-16T01:43:50.275Z,53.31
2022-12-16T01:49:01.587Z,53.59
2022-12-16T01:54:12.357Z,53.89
2022-12-16T01:59:17.147Z,53.78
2022-12-16T02:04:20.470Z,53.94
2022-12-16T02:09:23.901Z,53.44
2022-12-16T02:15:00.184Z,53.78
2022-12-16T02:20:35.060Z,54.37
2022-12-16T02:25:59.627Z,53.70
2022-12-16T02:31:15.267Z,53.79
2022-12-16T02:36:24.663Z,54.19
2022-12-16T02:41:51.275Z,54.53
2022-12-16T02:46:56.027Z,53.23
2022-12-16T02:52:01.751Z,53.15
2022-12-16T02:57:42.975Z,53.72
2022-12-16T03:02:58.542Z,53.80
2022-12-16T03:08:10.074Z,53.81
2022-12-16T03:13:17.735Z,54.12
2022-12-16T03:18:22.701Z,53.61
2022-12-16T03:23:32.734Z,53.96
2022-12-16T03:28:54.487Z,53.77
2022-12-16T03:34:23.857Z,53.41
2022-12-16T03:39:27.814Z,53.36
2022-12-16T03:44:31.600Z,52.85
2022-12-16T03:49:35.479Z,52.78
2022-12-16T03:54:39.753Z,52.27
2022-12-16T03:59:43.175Z,51.33
2022-12-16T04:04:47.085Z,51.98
2022-12-16T04:09:52.088Z,51.79
2022-12-16T04:15:13.440Z,51.27
2022-12-16T04:20:37.171Z,50.85
2022-12-16T04:25:40.187Z,51.25
2022-12-16T04:30:44.076Z,51.71
2022-12-16T04:36:07.048Z,50.64
2022-12-16T04:41:29.662Z,49.91
2022-12-16T04:46:52.490Z,50.51
2022-12-16T04:52:14.588Z,50.94
2022-12-16T04:57:37.651Z,52.03
2022-12-16T05:02:59.800Z,51.78
2022-12-16T05:08:21.739Z,52.80
2022-12-16T05:13:44.030Z,53.36
2022-12-16T05:19:06.522Z,52.88
2022-12-16T05:24:28.750Z,53.17
2022-12-16T05:29:50.750Z,53.80
2022-12-16T05:35:13.099Z,54.42
2022-12-16T05:40:34.597Z,55.96
2022-12-16T05:45:56.652Z,56.26
2022-12-16T05:51:18.915Z,57.18
2022-12-16T05:56:41.666Z,58.57
2022-12-16T06:02:03.787Z,59.13
2022-12-16T06:07:26.055Z,60.57
2022-12-16T06:12:47.954Z,61.36
2022-12-16T06:18:11.208Z,61.46
2022-12-16T06:23:34.297Z,62.46
2022-12-16T06:28:56.279Z,63.52
2022-12-16T06:34:18.537Z,64.56
2022-12-16T06:39:41.177Z,64.91
2022-12-16T06:45:02.921Z,64.58
2022-12-16T06:50:26.206Z,63.94
2022-12-16T06:55:49.042Z,63.55
2022-12-16T07:01:11.406Z,64.13
2022-12-16T07:06:33.321Z,59.45
2022-12-16T07:11:55.500Z,52.54
2022-12-16T07:17:18.623Z,48.91
2022-12-16T07:22:40.936Z,47.29
2022-12-16T07:28:12.188Z,46.23
2022-12-16T07:33:37.666Z,45.10
2022-12-16T07:38:59.819Z,45.20
2022-12-16T07:44:21.292Z,43.39
2022-12-16T07:49:43.858Z,43.02
2022-12-16T07:55:06.595Z,40.85
2022-12-16T08:00:28.860Z,42.12
2022-12-16T08:05:51.561Z,42.02
2022-12-16T08:11:13.081Z,40.37
2022-12-16T08:16:35.314Z,39.56
2022-12-16T08:21:58.283Z,40.08
2022-12-16T08:27:20.445Z,39.04
2022-12-16T08:32:42.917Z,39.10
2022-12-16T08:38:13.552Z,37.88
2022-12-16T08:43:37.022Z,38.11
2022-12-16T08:48:59.998Z,36.20
2022-12-16T08:54:22.262Z,37.49
2022-12-16T08:59:44.643Z,35.91
2022-12-16T09:05:07.043Z,35.09
2022-12-16T09:10:28.771Z,33.30
2022-12-16T09:15:51.956Z,32.77
2022-12-16T09:21:13.808Z,28.06
2022-12-16T09:26:35.847Z,29.42
2022-12-16T09:31:58.496Z,29.06
2022-12-16T09:37:20.367Z,28.83
2022-12-16T09:43:09.101Z,27.46
2022-12-16T09:49:01.451Z,26.13
2022-12-16T09:54:24.574Z,25.35
2022-12-16T10:00:00.171Z,24.27
2022-12-16T10:05:22.504Z,25.06
2022-12-16T10:11:22.310Z,25.05
2022-12-16T10:16:49.549Z,25.30
2022-12-16T10:22:22.916Z,25.43
2022-12-16T10:28:06.939Z,24.82
2022-12-16T10:33:33.201Z,24.92
2022-12-16T10:39:01.464Z,25.56
2022-12-16T10:44:32.536Z,26.39
2022-12-16T10:49:56.578Z,25.88
2022-12-16T10:55:41.193Z,28.27
2022-12-16T11:01:09.802Z,30.02
2022-12-16T11:06:55.791Z,29.73
2022-12-16T11:12:41.563Z,31.04
2022-12-16T11:18:22.031Z,28.86
2022-12-16T11:23:46.279Z,29.75
2022-12-16T11:29:21.802Z,30.35
2022-12-16T11:34:44.081Z,31.21
2022-12-16T11:40:07.332Z,32.11
2022-12-16T11:45:35.194Z,30.71
2022-12-16T11:51:07.321Z,31.95
2022-12-16T11:56:38.278Z,32.57
2022-12-16T12:02:18.696Z,33.06
2022-12-16T12:07:55.392Z,31.91
2022-12-16T12:13:26.369Z,31.71
2022-12-16T12:19:04.280Z,31.18
2022-12-16T12:24:37.768Z,32.11
2022-12-16T12:30:21.207Z,31.65
2022-12-16T12:36:37.946Z,30.48
2022-12-16T12:42:12.622Z,31.37
2022-12-16T12:47:37.170Z,31.29
2022-12-16T12:53:12.464Z,30.63
2022-12-16T12:58:36.545Z,30.91
2022-12-16T13:04:21.072Z,29.93
2022-12-16T13:09:51.408Z,29.33
2022-12-16T13:15:15.498Z,30.63
2022-12-16T13:20:53.112Z,30.16
2022-12-16T13:26:24.085Z,30.93
2022-12-16T13:31:47.734Z,30.38
2022-12-16T13:37:20.831Z,30.47
2022-12-16T13:42:50.902Z,30.30
2022-12-16T13:48:13.191Z,30.30
2022-12-16T13:53:36.994Z,30.28
2022-12-16T13:59:10.210Z,31.22
2022-12-16T14:04:44.252Z,30.25
2022-12-16T14:10:08.082Z,34.50
2022-12-16T14:15:45.172Z,44.46
2022-12-16T14:21:18.328Z,50.19
2022-12-16T14:26:41.241Z,51.80
2022-12-16T14:32:04.476Z,52.82
2022-12-16T14:37:31.462Z,55.19
2022-12-16T14:42:53.427Z,53.54
2022-12-16T14:48:16.166Z,50.80
2022-12-16T14:53:41.146Z,50.62
2022-12-16T14:59:03.435Z,49.73
2022-12-16T15:04:35.554Z,50.32
2022-12-16T15:10:03.270Z,48.21
2022-12-16T15:15:29.069Z,49.59
2022-12-16T15:20:53.963Z,48.85
2022-12-16T15:26:17.134Z,49.76
2022-12-16T15:31:56.824Z,52.19
2022-12-16T15:37:22.016Z,52.56
2022-12-16T15:42:47.796Z,53.19
2022-12-16T15:48:11.161Z,53.00
2022-12-16T15:53:55.737Z,51.65
2022-12-16T15:59:51.471Z,52.18
2022-12-16T16:05:14.131Z,53.15
2022-12-16T16:10:37.740Z,54.31
2022-12-16T16:15:59.705Z,53.85
2022-12-16T16:21:21.178Z,52.84
2022-12-16T16:27:03.657Z,52.15
2022-12-16T16:32:27.996Z,51.11
2022-12-16T16:37:50.641Z,51.49
2022-12-16T16:43:13.352Z,51.52
2022-12-16T16:48:37.766Z,51.94
2022-12-16T16:53:59.811Z,52.73
2022-12-16T16:59:21.539Z,52.76
2022-12-16T17:04:44.178Z,50.88
2022-12-16T17:10:06.123Z,48.81
2022-12-16T17:15:43.631Z,47.48
2022-12-16T17:21:05.867Z,47.49
2022-12-16T17:26:29.919Z,44.67
2022-12-16T17:31:51.728Z,45.32
2022-12-16T17:37:14.595Z,45.11
2022-12-16T17:42:37.290Z,43.50
2022-12-16T17:48:01.268Z,43.12
2022-12-16T17:53:24.425Z,41.39
2022-12-16T17:58:51.454Z,40.54
2022-12-16T18:04:13.997Z,40.10
2022-12-16T18:09:36.350Z,39.60
2022-12-16T18:14:58.394Z,38.64
2022-12-16T18:20:24.931Z,37.56
2022-12-16T18:25:47.127Z,38.39
2022-12-16T18:31:09.846Z,39.66
2022-12-16T18:36:32.184Z,40.86
2022-12-16T18:42:00.569Z,42.20
2022-12-16T18:47:22.956Z,42.92
2022-12-16T18:52:45.523Z,42.91
2022-12-16T18:58:21.074Z,42.16
2022-12-16T19:03:51.942Z,42.06
2022-12-16T19:09:14.644Z,43.18
2022-12-16T19:14:37.288Z,43.78
2022-12-16T19:19:59.387Z,44.80
2022-12-16T19:25:21.260Z,43.88
2022-12-16T19:30:43.829Z,42.79
2022-12-16T19:36:05.918Z,42.62
2022-12-16T19:41:36.228Z,42.64
2022-12-16T19:46:59.000Z,42.23
2022-12-16T19:52:21.377Z,43.08
2022-12-16T19:57:43.036Z,43.84
2022-12-16T20:03:05.228Z,43.81
2022-12-16T20:08:27.006Z,42.03
2022-12-16T20:13:49.102Z,41.78
2022-12-16T20:19:11.525Z,41.12
2022-12-16T20:24:33.426Z,41.63
2022-12-16T20:30:04.038Z,41.67
2022-12-16T20:35:26.170Z,41.73
2022-12-16T20:40:47.982Z,42.93
2022-12-16T20:46:14.469Z,42.86
2022-12-16T20:51:36.158Z,43.01
2022-12-16T20:56:59.119Z,41.87
2022-12-16T21:02:23.767Z,41.82
2022-12-16T21:07:47.030Z,42.66
2022-12-16T21:13:09.484Z,43.34
2022-12-16T21:18:53.561Z,43.03
2022-12-16T21:24:15.172Z,43.15
2022-12-16T21:29:37.664Z,44.65
2022-12-16T21:34:59.963Z,45.12
2022-12-16T21:40:23.189Z,44.90
2022-12-16T21:45:44.861Z,44.54
2022-12-16T21:51:12.344Z,43.99
2022-12-16T21:56:34.869Z,44.07
2022-12-16T22:01:57.443Z,43.98
2022-12-16T22:07:19.194Z,43.14
2022-12-16T22:12:42.131Z,42.96
2022-12-16T22:18:04.983Z,41.71
2022-12-16T22:23:28.436Z,41.23
2022-12-16T22:28:50.755Z,40.79
2022-12-16T22:34:12.864Z,40.91
2022-12-16T22:39:38.807Z,63.10
2022-12-16T22:45:04.092Z,75.13
2022-12-16T22:50:26.629Z,82.26
2022-12-16T22:55:48.423Z,83.76
2022-12-16T23:01:10.490Z,87.78
2022-12-16T23:06:32.919Z,88.92
2022-12-16T23:12:01.113Z,89.31
2022-12-16T23:17:23.898Z,89.99
2022-12-16T23:22:45.939Z,90.93
2022-12-16T23:28:08.866Z,91.74
2022-12-16T23:33:31.930Z,93.21
2022-12-16T23:38:55.005Z,91.46
2022-12-16T23:44:18.607Z,92.92
2022-12-16T23:49:42.374Z,94.25
2022-12-16T23:55:04.605Z,95.03
